createdAt,value
2022-09-20T00:00:10.973Z,9.44
2022-09-20T00:01:11.028Z,9.37
2022-09-20T00:02:10.950Z,9.40
2022-09-20T00:03:10.961Z,9.31
2022-09-20T00:04:10.942Z,9.39
2022-09-20T00:05:11.016Z,9.43
2022-09-20T00:06:10.927Z,9.26
2022-09-20T00:07:10.940Z,9.25
2022-09-20T00:08:10.918Z,9.21
2022-09-20T00:09:10.906Z,9.29
2022-09-20T00:10:10.901Z,9.29
2022-09-20T00:11:10.892Z,9.28
2022-09-20T00:12:10.912Z,9.37
2022-09-20T00:13:10.892Z,9.36
2022-09-20T00:14:10.880Z,9.36
2022-09-20T00:15:10.858Z,9.28
2022-09-20T00:16:10.910Z,9.25
2022-09-20T00:17:10.876Z,9.22
2022-09-20T00:18:10.843Z,9.14
2022-09-20T00:19:10.865Z,9.19
2022-09-20T00:20:10.837Z,9.14
2022-09-20T00:21:10.827Z,9.14
2022-09-20T00:22:10.846Z,9.29
2022-09-20T00:23:10.817Z,9.16
2022-09-20T00:24:10.828Z,9.22
2022-09-20T00:25:10.834Z,9.16
2022-09-20T00:26:10.811Z,9.25
2022-09-20T00:27:10.782Z,9.16
2022-09-20T00:29:28.489Z,9.18
2022-09-20T00:30:28.542Z,9.13
2022-09-20T00:31:28.529Z,9.06
2022-09-20T00:32:28.512Z,9.13
2022-09-20T00:33:28.506Z,9.10
2022-09-20T00:34:28.494Z,9.00
2022-09-20T00:35:28.489Z,9.08
2022-09-20T00:36:28.509Z,9.04
2022-09-20T00:37:28.483Z,9.10
2022-09-20T00:38:28.481Z,9.10
2022-09-20T00:39:28.487Z,9.04
2022-09-20T00:40:28.512Z,9.10
2022-09-20T00:41:28.464Z,9.08
2022-09-20T00:42:28.479Z,9.04
2022-09-20T00:43:28.450Z,9.11
2022-09-20T00:44:28.442Z,9.10
2022-09-20T00:45:28.478Z,9.10
2022-09-20T00:46:28.438Z,9.02
2022-09-20T00:47:28.431Z,9.14
2022-09-20T00:48:28.450Z,9.11
2022-09-20T00:49:28.410Z,9.14
2022-09-20T00:50:28.425Z,9.11
2022-09-20T00:51:28.392Z,9.16
2022-09-20T00:52:28.418Z,9.13
2022-09-20T00:53:28.392Z,9.16
2022-09-20T00:54:28.392Z,9.13
2022-09-20T00:55:28.377Z,9.19
2022-09-20T00:56:28.379Z,9.21
2022-09-20T00:57:28.362Z,9.22
2022-09-20T00:58:28.389Z,9.21
2022-09-20T00:59:28.348Z,9.19
2022-09-20T01:00:28.331Z,9.21
2022-09-20T01:01:28.366Z,9.21
2022-09-20T01:02:28.345Z,9.26
2022-09-20T01:03:28.307Z,9.31
2022-09-20T01:04:28.334Z,9.26
2022-09-20T01:05:28.314Z,9.22
2022-09-20T01:06:28.314Z,9.21
2022-09-20T01:07:28.288Z,9.28
2022-09-20T01:08:28.274Z,9.19
2022-09-20T01:09:28.274Z,9.19
2022-09-20T01:10:28.268Z,9.21
2022-09-20T01:11:28.253Z,9.23
2022-09-20T01:12:28.279Z,9.23
2022-09-20T01:13:28.241Z,9.37
2022-09-20T01:14:28.241Z,9.28
2022-09-20T01:15:28.261Z,9.36
2022-09-20T01:16:28.279Z,9.36
2022-09-20T01:17:28.216Z,9.32
2022-09-20T01:18:28.208Z,9.40
2022-09-20T01:19:28.196Z,9.36
2022-09-20T01:20:28.210Z,9.32
2022-09-20T01:21:28.213Z,9.32
2022-09-20T01:22:28.188Z,9.37
2022-09-20T01:23:28.192Z,9.39
2022-09-20T01:24:28.172Z,9.43
2022-09-20T01:25:28.159Z,9.37
2022-09-20T01:26:28.154Z,9.40
2022-09-20T01:27:28.158Z,9.40
2022-09-20T01:28:28.171Z,9.31
2022-09-20T01:29:28.142Z,9.37
2022-09-20T01:30:28.128Z,9.31
2022-09-20T01:31:28.268Z,9.31
2022-09-20T01:32:28.145Z,9.36
2022-09-20T01:33:28.110Z,9.36
2022-09-20T01:34:28.111Z,9.34
2022-09-20T01:35:28.098Z,9.28
2022-09-20T01:36:28.094Z,9.41
2022-09-20T01:37:28.099Z,9.37
2022-09-20T01:38:28.093Z,9.44
2022-09-20T01:39:28.076Z,9.40
2022-09-20T01:40:28.145Z,9.44
2022-09-20T01:41:28.071Z,9.41
2022-09-20T01:42:28.096Z,9.39
2022-09-20T01:43:28.048Z,9.40
2022-09-20T01:44:28.052Z,9.39
2022-09-20T01:45:28.081Z,9.51
2022-09-20T01:46:28.025Z,9.41
2022-09-20T01:47:28.052Z,9.48
2022-09-20T01:48:28.040Z,9.48
2022-09-20T01:49:28.019Z,9.44
2022-09-20T01:50:28.033Z,9.48
2022-09-20T01:51:28.007Z,9.50
2022-09-20T01:52:28.031Z,9.54
2022-09-20T01:53:28.001Z,9.51
2022-09-20T01:54:27.989Z,9.50
2022-09-20T01:55:27.986Z,9.51
2022-09-20T01:56:27.975Z,9.46
2022-09-20T01:57:27.967Z,9.59
2022-09-20T01:58:27.984Z,9.50
2022-09-20T01:59:28.294Z,9.55
2022-09-20T02:00:27.976Z,9.55
2022-09-20T02:01:27.974Z,9.58
2022-09-20T02:02:27.979Z,9.47
2022-09-20T02:03:27.930Z,9.51
2022-09-20T02:04:27.923Z,9.50
2022-09-20T02:05:27.924Z,9.54
2022-09-20T02:06:27.937Z,9.51
2022-09-20T02:07:27.905Z,9.50
2022-09-20T02:08:27.906Z,9.50
2022-09-20T02:09:27.925Z,9.56
2022-09-20T02:10:27.893Z,9.50
2022-09-20T02:11:27.892Z,9.55
2022-09-20T02:12:33.261Z,9.51
2022-09-20T02:13:27.895Z,9.55
2022-09-20T02:14:27.871Z,9.51
2022-09-20T02:15:27.852Z,9.61
2022-09-20T02:16:27.889Z,9.66
2022-09-20T02:17:27.846Z,9.64
2022-09-20T02:18:27.843Z,9.61
2022-09-20T02:19:27.865Z,9.64
2022-09-20T02:20:27.830Z,9.69
2022-09-20T02:21:27.823Z,9.61
2022-09-20T02:22:27.820Z,9.58
2022-09-20T02:23:27.807Z,9.69
2022-09-20T02:24:27.817Z,9.68
2022-09-20T02:25:27.829Z,9.64
2022-09-20T02:26:27.795Z,9.55
2022-09-20T02:27:27.790Z,9.65
2022-09-20T02:28:27.785Z,9.62
2022-09-20T02:29:27.771Z,9.68
2022-09-20T02:30:27.776Z,9.58
2022-09-20T02:31:27.836Z,9.46
2022-09-20T02:32:27.765Z,9.51
2022-09-20T02:33:27.750Z,9.44
2022-09-20T02:34:27.756Z,9.48
2022-09-20T02:35:27.740Z,9.39
2022-09-20T02:36:27.737Z,9.43
2022-09-20T02:37:27.760Z,9.43
2022-09-20T02:38:27.723Z,9.41
2022-09-20T02:39:27.724Z,9.55
2022-09-20T02:40:27.762Z,9.46
2022-09-20T02:41:27.706Z,9.44
2022-09-20T02:42:27.702Z,9.41
2022-09-20T02:43:27.719Z,9.39
2022-09-20T02:44:27.690Z,9.41
2022-09-20T02:45:27.755Z,9.36
2022-09-20T02:46:27.699Z,9.36
2022-09-20T02:47:27.676Z,9.28
2022-09-20T02:48:27.683Z,9.28
2022-09-20T02:49:27.680Z,9.29
2022-09-20T02:50:27.664Z,9.29
2022-09-20T02:51:27.659Z,9.23
2022-09-20T02:52:27.653Z,9.19
2022-09-20T02:53:27.648Z,9.16
2022-09-20T02:54:27.635Z,9.23
2022-09-20T02:55:27.651Z,9.19
2022-09-20T02:56:27.624Z,9.21
2022-09-20T02:57:27.634Z,9.19
2022-09-20T02:58:27.604Z,9.18
2022-09-20T02:59:27.606Z,9.18
2022-09-20T03:00:27.594Z,9.18
2022-09-20T03:01:27.659Z,9.18
2022-09-20T03:02:27.644Z,9.16
2022-09-20T03:03:27.589Z,9.11
2022-09-20T03:04:27.596Z,9.16
2022-09-20T03:05:27.569Z,8.97
2022-09-20T03:06:27.559Z,8.99
2022-09-20T03:07:27.563Z,8.94
2022-09-20T03:08:27.554Z,8.97
2022-09-20T03:09:27.547Z,8.82
2022-09-20T03:10:27.564Z,8.79
2022-09-20T03:11:27.539Z,8.84
2022-09-20T03:12:27.533Z,8.82
2022-09-20T03:13:27.520Z,8.74
2022-09-20T03:14:27.519Z,8.74
2022-09-20T03:15:27.521Z,8.71
2022-09-20T03:16:27.621Z,8.70
2022-09-20T03:17:27.506Z,8.87
2022-09-20T03:18:27.497Z,8.82
2022-09-20T03:19:27.514Z,8.76
2022-09-20T03:20:27.486Z,8.81
2022-09-20T03:21:27.476Z,8.82
2022-09-20T03:22:27.477Z,8.76
2022-09-20T03:23:27.469Z,8.76
2022-09-20T03:24:27.466Z,8.78
2022-09-20T03:25:27.481Z,8.79
2022-09-20T03:26:27.449Z,8.82
2022-09-20T03:27:27.445Z,8.74
2022-09-20T03:28:27.468Z,8.81
2022-09-20T03:29:27.435Z,8.79
2022-09-20T03:30:27.431Z,8.85
2022-09-20T03:31:27.444Z,8.79
2022-09-20T03:32:27.421Z,8.84
2022-09-20T03:33:27.432Z,8.92
2022-09-20T03:34:27.406Z,8.87
2022-09-20T03:35:27.398Z,8.97
2022-09-20T03:36:27.411Z,8.89
2022-09-20T03:37:27.389Z,8.88
2022-09-20T03:38:27.382Z,8.92
2022-09-20T03:39:27.386Z,8.91
2022-09-20T03:40:27.449Z,8.91
2022-09-20T03:41:27.361Z,8.99
2022-09-20T03:42:27.354Z,8.88
2022-09-20T03:43:27.361Z,8.81
2022-09-20T03:44:27.376Z,8.94
2022-09-20T03:45:27.392Z,9.02
2022-09-20T03:46:27.343Z,8.89
2022-09-20T03:47:27.339Z,8.94
2022-09-20T03:48:27.323Z,8.97
2022-09-20T03:49:27.310Z,9.06
2022-09-20T03:50:27.333Z,8.99
2022-09-20T03:51:31.617Z,9.03
2022-09-20T03:52:28.296Z,9.03
2022-09-20T03:53:27.296Z,9.04
2022-09-20T03:54:27.289Z,8.95
2022-09-20T03:55:27.277Z,8.92
2022-09-20T03:56:27.286Z,8.91
2022-09-20T03:57:27.269Z,8.99
2022-09-20T03:58:27.258Z,8.99
2022-09-20T03:59:27.247Z,8.95
2022-09-20T04:00:27.253Z,8.94
2022-09-20T04:01:27.255Z,8.94
2022-09-20T04:02:27.329Z,8.99
2022-09-20T04:03:27.228Z,9.04
2022-09-20T04:04:27.224Z,8.94
2022-09-20T04:05:27.217Z,8.94
2022-09-20T04:06:27.223Z,8.94
2022-09-20T04:07:27.204Z,8.85
2022-09-20T04:08:27.245Z,8.92
2022-09-20T04:09:27.199Z,8.88
2022-09-20T04:10:27.190Z,8.82
2022-09-20T04:11:27.189Z,8.87
2022-09-20T04:12:27.175Z,8.88
2022-09-20T04:13:27.169Z,8.91
2022-09-20T04:14:27.193Z,8.91
2022-09-20T04:15:27.166Z,9.03
2022-09-20T04:16:27.214Z,9.00
2022-09-20T04:17:27.144Z,8.99
2022-09-20T04:18:27.143Z,8.94
2022-09-20T04:19:30.936Z,8.89
2022-09-20T04:20:28.151Z,9.06
2022-09-20T04:21:27.124Z,9.04
2022-09-20T04:22:27.122Z,9.03
2022-09-20T04:23:27.116Z,9.10
2022-09-20T04:24:27.122Z,9.04
2022-09-20T04:25:27.117Z,9.13
2022-09-20T04:26:27.096Z,9.10
2022-09-20T04:27:27.080Z,9.10
2022-09-20T04:28:27.078Z,9.11
2022-09-20T04:29:27.074Z,9.08
2022-09-20T04:30:27.060Z,9.04
2022-09-20T04:31:27.148Z,9.13
2022-09-20T04:32:27.097Z,9.06
2022-09-20T04:33:27.054Z,9.03
2022-09-20T04:34:27.042Z,9.10
2022-09-20T04:35:27.036Z,9.04
2022-09-20T04:36:27.034Z,9.10
2022-09-20T04:37:27.063Z,9.06
2022-09-20T04:38:27.015Z,9.08
2022-09-20T04:39:27.023Z,8.97
2022-09-20T04:40:27.042Z,9.06
2022-09-20T04:41:27.009Z,8.97
2022-09-20T04:42:26.991Z,9.04
2022-09-20T04:43:27.005Z,8.99
2022-09-20T04:44:26.980Z,8.95
2022-09-20T04:45:27.145Z,9.02
2022-09-20T04:46:27.076Z,8.95
2022-09-20T04:47:26.987Z,9.04
2022-09-20T04:48:26.981Z,9.04
2022-09-20T04:49:26.951Z,9.04
2022-09-20T04:50:26.948Z,9.14
2022-09-20T04:51:26.955Z,9.14
2022-09-20T04:52:26.938Z,9.13
2022-09-20T04:53:26.930Z,9.08
2022-09-20T04:54:26.928Z,9.02
2022-09-20T04:55:26.921Z,9.04
2022-09-20T04:56:26.920Z,9.02
2022-09-20T04:57:26.894Z,9.08
2022-09-20T04:58:26.899Z,9.04
2022-09-20T04:59:26.911Z,9.03
2022-09-20T05:00:26.880Z,9.03
2022-09-20T05:01:31.626Z,8.92
2022-09-20T05:02:27.950Z,8.97
2022-09-20T05:03:26.883Z,8.89
2022-09-20T05:04:26.871Z,8.95
2022-09-20T05:05:26.899Z,8.97
2022-09-20T05:06:26.874Z,8.92
2022-09-20T05:07:26.871Z,8.99
2022-09-20T05:08:26.850Z,9.00
2022-09-20T05:09:26.861Z,8.85
2022-09-20T05:10:26.842Z,8.99
2022-09-20T05:11:26.832Z,8.87
2022-09-20T05:12:26.827Z,8.85
2022-09-20T05:13:26.803Z,9.02
2022-09-20T05:14:26.863Z,8.97
2022-09-20T05:15:26.789Z,9.00
2022-09-20T05:16:26.848Z,9.00
2022-09-20T05:17:26.774Z,8.95
2022-09-20T05:18:26.772Z,8.99
2022-09-20T05:19:26.788Z,8.95
2022-09-20T05:20:26.779Z,8.89
2022-09-20T05:21:26.771Z,8.94
2022-09-20T05:22:26.757Z,8.99
2022-09-20T05:23:26.744Z,8.97
2022-09-20T05:24:26.734Z,8.97
2022-09-20T05:25:26.728Z,8.94
2022-09-20T05:26:26.732Z,8.99
2022-09-20T05:27:26.736Z,8.97
2022-09-20T05:28:26.714Z,8.97
2022-09-20T05:29:26.702Z,9.00
2022-09-20T05:30:26.721Z,9.04
2022-09-20T05:31:26.700Z,9.06
2022-09-20T05:32:26.702Z,9.03
2022-09-20T05:33:26.689Z,9.00
2022-09-20T05:34:26.677Z,9.10
2022-09-20T05:35:26.698Z,9.21
2022-09-20T05:36:29.152Z,9.41
2022-09-20T05:37:26.646Z,9.43
2022-09-20T05:38:26.741Z,9.62
2022-09-20T05:39:26.665Z,9.79
2022-09-20T05:40:26.697Z,9.86
2022-09-20T05:41:26.646Z,10.13
2022-09-20T05:42:26.646Z,10.22
2022-09-20T05:43:26.623Z,10.49
2022-09-20T05:44:26.606Z,10.67
2022-09-20T05:45:26.597Z,10.74
2022-09-20T05:46:26.595Z,10.82
2022-09-20T05:47:26.585Z,10.96
2022-09-20T05:48:26.627Z,10.90
2022-09-20T05:49:26.573Z,10.56
2022-09-20T05:50:26.573Z,10.57
2022-09-20T05:51:26.570Z,10.31
2022-09-20T05:52:26.591Z,10.20
2022-09-20T05:53:26.556Z,10.09
2022-09-20T05:54:26.577Z,10.12
2022-09-20T05:55:26.547Z,9.92
2022-09-20T05:56:26.545Z,9.84
2022-09-20T05:57:26.537Z,9.79
2022-09-20T05:58:26.534Z,9.80
2022-09-20T05:59:26.523Z,9.76
2022-09-20T06:00:26.536Z,9.66
2022-09-20T06:01:26.539Z,9.62
2022-09-20T06:02:26.599Z,9.68
2022-09-20T06:03:26.540Z,9.65
2022-09-20T06:04:26.492Z,9.59
2022-09-20T06:05:26.492Z,9.55
2022-09-20T06:06:31.728Z,9.56
2022-09-20T06:07:27.470Z,9.59
2022-09-20T06:08:26.462Z,9.47
2022-09-20T06:09:26.482Z,9.41
2022-09-20T06:10:26.459Z,9.43
2022-09-20T06:11:26.471Z,9.34
2022-09-20T06:12:26.447Z,9.37
2022-09-20T06:13:26.437Z,9.40
2022-09-20T06:14:26.437Z,9.46
2022-09-20T06:15:26.434Z,9.51
2022-09-20T06:16:26.463Z,9.55
2022-09-20T06:17:26.417Z,9.50
2022-09-20T06:18:26.417Z,9.51
2022-09-20T06:19:26.408Z,9.56
2022-09-20T06:20:26.577Z,9.59
2022-09-20T06:21:26.390Z,9.54
2022-09-20T06:22:26.378Z,9.65
2022-09-20T06:23:26.384Z,9.56
2022-09-20T06:24:26.410Z,9.61
2022-09-20T06:25:26.361Z,9.69
2022-09-20T06:26:26.357Z,9.76
2022-09-20T06:27:26.350Z,9.66
2022-09-20T06:28:26.355Z,9.73
2022-09-20T06:29:26.358Z,9.74
2022-09-20T06:30:26.437Z,9.72
2022-09-20T06:31:26.344Z,9.83
2022-09-20T06:32:26.328Z,9.82
2022-09-20T06:33:26.354Z,9.87
2022-09-20T06:34:26.312Z,9.94
2022-09-20T06:35:26.321Z,9.92
2022-09-20T06:36:26.299Z,9.94
2022-09-20T06:37:26.312Z,9.92
2022-09-20T06:38:26.298Z,9.98
2022-09-20T06:39:26.297Z,9.97
2022-09-20T06:40:26.384Z,10.05
2022-09-20T06:41:26.274Z,10.05
2022-09-20T06:42:27.266Z,10.09
2022-09-20T06:43:26.265Z,10.02
2022-09-20T06:44:26.251Z,10.02
2022-09-20T06:45:26.263Z,10.12
2022-09-20T06:46:26.245Z,10.09
2022-09-20T06:47:26.231Z,10.01
2022-09-20T06:48:26.252Z,9.99
2022-09-20T06:49:26.246Z,9.92
2022-09-20T06:50:26.213Z,9.95
2022-09-20T06:51:26.197Z,9.91
2022-09-20T06:52:26.203Z,9.94
2022-09-20T06:53:26.193Z,9.92
2022-09-20T06:54:26.185Z,9.99
2022-09-20T06:55:29.152Z,10.02
2022-09-20T06:56:26.174Z,9.95
2022-09-20T06:57:26.192Z,9.97
2022-09-20T06:58:26.171Z,9.87
2022-09-20T06:59:26.163Z,9.92
2022-09-20T07:00:26.161Z,10.04
2022-09-20T07:01:30.603Z,10.12
2022-09-20T07:02:26.162Z,10.10
2022-09-20T07:03:26.137Z,10.05
2022-09-20T07:04:26.121Z,10.01
2022-09-20T07:05:26.108Z,10.02
2022-09-20T07:06:26.099Z,10.09
2022-09-20T07:07:26.091Z,10.13
2022-09-20T07:08:26.111Z,10.04
2022-09-20T07:09:26.074Z,10.12
2022-09-20T07:10:26.079Z,10.09
2022-09-20T07:11:26.063Z,10.13
2022-09-20T07:12:26.103Z,10.16
2022-09-20T07:13:26.058Z,10.12
2022-09-20T07:14:26.047Z,10.25
2022-09-20T07:15:26.047Z,10.22
2022-09-20T07:16:26.084Z,10.25
2022-09-20T07:17:26.037Z,10.41
2022-09-20T07:18:26.046Z,10.28
2022-09-20T07:19:26.016Z,10.30
2022-09-20T07:20:26.009Z,10.37
2022-09-20T07:21:26.001Z,10.34
2022-09-20T07:22:26.001Z,10.34
2022-09-20T07:23:25.983Z,10.34
2022-09-20T07:24:26.001Z,10.38
2022-09-20T07:25:25.979Z,10.25
2022-09-20T07:26:25.974Z,10.34
2022-09-20T07:27:29.183Z,10.41
2022-09-20T07:28:25.962Z,10.44
2022-09-20T07:29:25.977Z,10.49
2022-09-20T07:30:25.937Z,10.44
2022-09-20T07:31:25.960Z,10.51
2022-09-20T07:32:25.935Z,10.54
2022-09-20T07:33:25.922Z,10.60
2022-09-20T07:34:25.922Z,10.60
2022-09-20T07:35:25.926Z,10.68
2022-09-20T07:36:25.903Z,10.61
2022-09-20T07:37:25.887Z,10.69
2022-09-20T07:38:25.890Z,10.82
2022-09-20T07:39:25.887Z,10.72
2022-09-20T07:40:25.906Z,10.76
2022-09-20T07:41:25.887Z,10.81
2022-09-20T07:42:25.864Z,10.78
2022-09-20T07:43:25.863Z,10.79
2022-09-20T07:44:25.869Z,10.68
2022-09-20T07:45:25.871Z,10.81
2022-09-20T07:46:25.836Z,10.71
2022-09-20T07:47:25.830Z,10.61
2022-09-20T07:48:25.861Z,10.82
2022-09-20T07:49:25.826Z,10.69
2022-09-20T07:50:25.819Z,10.74
2022-09-20T07:51:25.829Z,10.76
2022-09-20T07:52:25.803Z,10.71
2022-09-20T07:53:25.802Z,10.74
2022-09-20T07:54:25.796Z,10.75
2022-09-20T07:55:25.790Z,10.79
2022-09-20T07:56:25.802Z,10.78
2022-09-20T07:57:25.767Z,10.75
2022-09-20T07:58:25.769Z,10.64
2022-09-20T07:59:25.757Z,10.61
2022-09-20T08:00:25.751Z,10.68
2022-09-20T08:01:25.876Z,10.63
2022-09-20T08:02:25.799Z,10.64
2022-09-20T08:03:25.748Z,10.68
2022-09-20T08:04:25.759Z,10.59
2022-09-20T08:05:25.720Z,10.57
2022-09-20T08:06:25.713Z,10.60
2022-09-20T08:07:25.708Z,10.63
2022-09-20T08:08:25.702Z,10.68
2022-09-20T08:09:25.686Z,10.75
2022-09-20T08:10:25.705Z,10.84
2022-09-20T08:11:27.734Z,10.86
2022-09-20T08:14:26.679Z,10.89
2022-09-20T08:15:25.684Z,10.93
2022-09-20T08:16:25.727Z,10.89
2022-09-20T08:17:25.656Z,10.90
2022-09-20T08:18:25.647Z,10.90
2022-09-20T08:19:25.647Z,10.94
2022-09-20T08:20:25.649Z,10.93
2022-09-20T08:21:25.620Z,11.07
2022-09-20T08:22:25.611Z,11.07
2022-09-20T08:23:25.611Z,11.15
2022-09-20T08:24:25.610Z,11.05
2022-09-20T08:25:25.600Z,11.17
2022-09-20T08:26:25.621Z,11.22
2022-09-20T08:27:25.594Z,11.19
2022-09-20T08:28:25.579Z,11.26
2022-09-20T08:29:25.589Z,11.26
2022-09-20T08:30:27.612Z,11.37
2022-09-20T08:31:25.590Z,11.54
2022-09-20T08:32:25.558Z,11.45
2022-09-20T08:33:25.542Z,11.60
2022-09-20T08:34:25.581Z,11.66
2022-09-20T08:35:25.530Z,11.75
2022-09-20T08:36:25.551Z,11.72
2022-09-20T08:37:25.535Z,11.73
2022-09-20T08:40:25.611Z,11.77
2022-09-20T08:41:25.497Z,11.83
2022-09-20T08:42:25.497Z,11.83
2022-09-20T08:43:25.524Z,11.86
2022-09-20T08:44:25.476Z,11.97
2022-09-20T08:45:35.562Z,11.91
2022-09-20T08:46:26.502Z,12.00
2022-09-20T08:47:25.453Z,12.00
2022-09-20T08:48:25.459Z,12.03
2022-09-20T08:49:25.468Z,12.10
2022-09-20T08:50:25.469Z,12.02
2022-09-20T08:51:25.445Z,12.00
2022-09-20T08:52:25.431Z,11.99
2022-09-20T08:53:25.417Z,11.95
2022-09-20T08:54:25.400Z,11.97
2022-09-20T08:55:25.425Z,11.99
2022-09-20T08:56:25.399Z,11.94
2022-09-20T08:57:25.386Z,11.88
2022-09-20T08:58:25.403Z,11.88
2022-09-20T08:59:25.383Z,11.86
2022-09-20T09:00:25.386Z,11.88
2022-09-20T09:01:25.451Z,11.88
2022-09-20T09:02:25.440Z,11.77
2022-09-20T09:03:25.351Z,11.87
2022-09-20T09:04:25.350Z,11.81
2022-09-20T09:05:25.352Z,11.81
2022-09-20T09:06:25.365Z,11.77
2022-09-20T09:07:25.327Z,11.78
2022-09-20T09:08:25.351Z,11.80
2022-09-20T09:09:25.313Z,11.77
2022-09-20T09:10:25.315Z,11.72
2022-09-20T09:11:25.304Z,11.73
2022-09-20T09:12:25.304Z,11.72
2022-09-20T09:13:25.293Z,11.83
2022-09-20T09:14:25.313Z,12.02
2022-09-20T09:15:25.272Z,11.94
2022-09-20T09:16:31.834Z,11.97
2022-09-20T09:17:27.868Z,12.13
2022-09-20T09:18:31.733Z,12.20
2022-09-20T09:19:26.274Z,12.36
2022-09-20T09:20:25.237Z,12.46
2022-09-20T09:21:25.238Z,12.50
2022-09-20T09:22:25.232Z,12.50
2022-09-20T09:23:25.220Z,12.62
2022-09-20T09:24:25.215Z,12.60
2022-09-20T09:25:25.225Z,12.55
2022-09-20T09:26:25.234Z,12.62
2022-09-20T09:27:25.216Z,12.57
2022-09-20T09:28:25.192Z,12.29
2022-09-20T09:29:25.201Z,12.29
2022-09-20T09:30:25.195Z,12.40
2022-09-20T09:31:25.200Z,12.47
2022-09-20T09:32:25.168Z,12.50
2022-09-20T09:33:25.163Z,12.58
2022-09-20T09:34:25.166Z,12.72
2022-09-20T09:35:25.135Z,12.73
2022-09-20T09:36:25.141Z,12.82
2022-09-20T09:37:28.403Z,12.86
2022-09-20T09:38:25.126Z,13.08
2022-09-20T09:39:25.106Z,13.31
2022-09-20T09:40:25.159Z,13.50
2022-09-20T09:41:25.094Z,13.47
2022-09-20T09:42:25.105Z,13.52
2022-09-20T09:43:25.079Z,13.56
2022-09-20T09:44:25.077Z,13.63
2022-09-20T09:45:25.069Z,13.78
2022-09-20T09:46:25.079Z,13.89
2022-09-20T09:47:25.068Z,13.83
2022-09-20T09:48:25.059Z,13.90
2022-09-20T09:49:25.034Z,13.93
2022-09-20T09:50:25.058Z,13.90
2022-09-20T09:51:25.033Z,13.99
2022-09-20T09:52:25.012Z,13.95
2022-09-20T09:53:25.012Z,13.95
2022-09-20T09:54:25.011Z,13.95
2022-09-20T09:55:24.994Z,13.83
2022-09-20T09:56:24.976Z,13.83
2022-09-20T09:57:24.966Z,13.85
2022-09-20T09:58:24.986Z,13.68
2022-09-20T09:59:24.981Z,13.70
2022-09-20T10:00:24.960Z,13.75
2022-09-20T10:01:25.079Z,13.75
2022-09-20T10:02:25.041Z,13.67
2022-09-20T10:03:24.927Z,13.95
2022-09-20T10:04:24.941Z,13.85
2022-09-20T10:05:24.907Z,13.92
2022-09-20T10:06:24.910Z,13.97
2022-09-20T10:07:24.919Z,14.08
2022-09-20T10:08:24.892Z,14.00
2022-09-20T10:09:24.910Z,13.92
2022-09-20T10:10:24.873Z,13.89
2022-09-20T10:11:24.893Z,13.90
2022-09-20T10:12:24.893Z,13.86
2022-09-20T10:13:24.857Z,13.71
2022-09-20T10:14:24.846Z,13.46
2022-09-20T10:15:24.838Z,13.56
2022-09-20T10:16:24.883Z,13.77
2022-09-20T10:17:24.831Z,14.05
2022-09-20T10:18:24.819Z,14.18
2022-09-20T10:19:24.841Z,14.40
2022-09-20T10:20:24.806Z,14.50
2022-09-20T10:21:24.794Z,14.63
2022-09-20T10:22:24.819Z,14.88
2022-09-20T10:23:51.433Z,14.99
2022-09-20T10:24:25.791Z,14.81
2022-09-20T10:25:24.791Z,14.62
2022-09-20T10:26:24.761Z,14.43
2022-09-20T10:27:24.793Z,14.43
2022-09-20T10:28:24.763Z,14.36
2022-09-20T10:29:24.743Z,14.44
2022-09-20T10:30:24.746Z,14.51
2022-09-20T10:31:25.933Z,14.53
2022-09-20T10:32:24.720Z,14.63
2022-09-20T10:33:24.735Z,14.69
2022-09-20T10:34:24.736Z,14.81
2022-09-20T10:35:24.700Z,14.77
2022-09-20T10:36:24.712Z,14.62
2022-09-20T10:37:24.692Z,14.47
2022-09-20T10:38:24.667Z,14.44
2022-09-20T10:39:24.688Z,14.43
2022-09-20T10:40:24.695Z,14.45
2022-09-20T10:41:24.660Z,14.40
2022-09-20T10:42:24.646Z,14.50
2022-09-20T10:43:24.640Z,14.47
2022-09-20T10:44:24.641Z,14.48
2022-09-20T10:45:59.144Z,14.48
2022-09-20T10:46:33.189Z,14.53
2022-09-20T10:47:25.711Z,14.48
2022-09-20T10:48:24.613Z,14.54
2022-09-20T10:49:24.595Z,14.66
2022-09-20T10:50:24.586Z,14.78
2022-09-20T10:51:24.582Z,14.63
2022-09-20T10:52:24.609Z,14.58
2022-09-20T10:53:24.584Z,14.55
2022-09-20T10:54:24.557Z,14.59
2022-09-20T10:55:24.548Z,14.60
2022-09-20T10:56:24.544Z,14.48
2022-09-20T10:57:24.534Z,14.44
2022-09-20T10:58:24.522Z,14.14
2022-09-20T10:59:24.533Z,13.92
2022-09-20T11:00:24.515Z,13.52
2022-09-20T11:01:24.596Z,13.31
2022-09-20T11:02:24.522Z,13.08
2022-09-20T11:03:24.484Z,12.91
2022-09-20T11:04:24.484Z,12.79
2022-09-20T11:05:24.494Z,12.49
2022-09-20T11:06:24.467Z,12.25
2022-09-20T11:07:24.469Z,12.21
2022-09-20T11:08:24.460Z,12.10
2022-09-20T11:09:24.452Z,12.03
2022-09-20T11:10:24.466Z,12.09
2022-09-20T11:11:24.427Z,12.03
2022-09-20T11:12:24.448Z,11.97
2022-09-20T11:13:24.437Z,11.86
2022-09-20T11:14:24.426Z,11.90
2022-09-20T11:15:24.409Z,11.95
2022-09-20T11:16:24.471Z,11.88
2022-09-20T11:17:24.396Z,11.83
2022-09-20T11:18:24.383Z,11.87
2022-09-20T11:19:24.382Z,11.78
2022-09-20T11:20:24.382Z,11.80
2022-09-20T11:21:24.421Z,11.90
2022-09-20T11:22:24.360Z,11.94
2022-09-20T11:23:24.353Z,11.95
2022-09-20T11:24:24.349Z,11.91
2022-09-20T11:25:29.316Z,12.02
2022-09-20T11:26:25.402Z,12.09
2022-09-20T11:27:24.319Z,12.21
2022-09-20T11:28:24.319Z,12.25
2022-09-20T11:29:24.314Z,12.31
2022-09-20T11:30:24.320Z,12.40
2022-09-20T11:31:24.327Z,12.45
2022-09-20T11:32:24.307Z,12.50
2022-09-20T11:33:24.280Z,12.46
2022-09-20T11:34:24.316Z,12.49
2022-09-20T11:35:24.280Z,12.47
2022-09-20T11:36:24.283Z,12.60
2022-09-20T11:37:24.266Z,12.68
2022-09-20T11:38:24.263Z,12.86
2022-09-20T11:39:24.260Z,12.73
2022-09-20T11:40:24.307Z,12.91
2022-09-20T11:41:24.236Z,12.93
2022-09-20T11:42:24.265Z,13.03
2022-09-20T11:43:24.227Z,13.13
2022-09-20T11:44:24.252Z,13.22
2022-09-20T11:45:28.248Z,12.97
2022-09-20T11:46:24.237Z,13.11
2022-09-20T11:47:49.953Z,12.98
2022-09-20T11:48:25.188Z,13.16
2022-09-20T11:49:24.180Z,13.19
2022-09-20T11:50:24.180Z,13.28
2022-09-20T11:51:24.166Z,13.46
2022-09-20T11:52:24.180Z,13.57
2022-09-20T11:53:24.161Z,13.60
2022-09-20T11:54:24.150Z,13.75
2022-09-20T11:55:24.131Z,13.74
2022-09-20T11:56:24.137Z,13.70
2022-09-20T11:57:24.147Z,13.74
2022-09-20T11:58:24.127Z,13.75
2022-09-20T11:59:24.115Z,13.92
2022-09-20T12:00:24.108Z,13.81
2022-09-20T12:01:28.078Z,13.99
2022-09-20T12:02:24.177Z,13.93
2022-09-20T12:03:24.142Z,13.99
2022-09-20T12:04:33.215Z,13.99
2022-09-20T12:05:25.070Z,14.14
2022-09-20T12:06:24.060Z,14.44
2022-09-20T12:07:24.079Z,14.58
2022-09-20T12:08:24.086Z,14.73
2022-09-20T12:09:24.045Z,14.82
2022-09-20T12:10:24.039Z,14.84
2022-09-20T12:11:24.034Z,14.84
2022-09-20T12:12:24.027Z,14.86
2022-09-20T12:13:24.015Z,14.96
2022-09-20T12:14:24.024Z,14.89
2022-09-20T12:15:23.998Z,14.96
2022-09-20T12:16:24.014Z,15.04
2022-09-20T12:17:23.982Z,14.91
2022-09-20T12:18:23.992Z,14.94
2022-09-20T12:19:23.989Z,14.97
2022-09-20T12:20:23.963Z,15.03
2022-09-20T12:21:23.975Z,15.17
2022-09-20T12:22:23.956Z,15.14
2022-09-20T12:23:23.986Z,15.37
2022-09-20T12:24:23.934Z,15.31
2022-09-20T12:25:23.919Z,15.54
2022-09-20T12:26:23.928Z,15.49
2022-09-20T12:27:23.918Z,15.67
2022-09-20T12:28:23.908Z,15.92
2022-09-20T12:29:23.921Z,15.98
2022-09-20T12:30:23.893Z,16.12
2022-09-20T12:31:23.915Z,16.38
2022-09-20T12:32:23.879Z,16.46
2022-09-20T12:33:23.867Z,16.56
2022-09-20T12:34:23.867Z,16.61
2022-09-20T12:35:23.868Z,16.71
2022-09-20T12:36:23.844Z,16.76
2022-09-20T12:37:23.834Z,16.86
2022-09-20T12:38:23.835Z,17.08
2022-09-20T12:39:28.905Z,16.99
2022-09-20T12:40:24.871Z,16.97
2022-09-20T12:41:28.580Z,16.83
2022-09-20T12:42:24.809Z,16.71
2022-09-20T12:43:23.795Z,16.89
2022-09-20T12:44:23.796Z,16.65
2022-09-20T12:45:23.839Z,16.74
2022-09-20T12:46:23.792Z,16.69
2022-09-20T12:47:23.759Z,16.41
2022-09-20T12:48:23.751Z,16.17
2022-09-20T12:49:23.781Z,16.17
2022-09-20T12:50:23.740Z,16.21
2022-09-20T12:51:23.730Z,16.08
2022-09-20T12:52:23.729Z,15.94
2022-09-20T12:53:23.715Z,15.90
2022-09-20T12:54:23.718Z,15.97
2022-09-20T12:55:23.728Z,15.79
2022-09-20T12:56:23.716Z,15.83
2022-09-20T12:57:23.694Z,15.90
2022-09-20T12:58:23.682Z,16.10
2022-09-20T12:59:23.684Z,16.16
2022-09-20T13:00:23.664Z,16.33
2022-09-20T13:01:23.741Z,16.42
2022-09-20T13:02:23.715Z,16.53
2022-09-20T13:03:23.650Z,16.42
2022-09-20T13:04:23.638Z,16.53
2022-09-20T13:05:23.649Z,16.71
2022-09-20T13:06:23.648Z,16.84
2022-09-20T13:07:23.623Z,16.99
2022-09-20T13:08:23.630Z,17.19
2022-09-20T13:09:23.603Z,17.22
2022-09-20T13:10:23.594Z,17.36